S 386 Casilo — OZZP — position and weather

sailwx.info

Track history (hours):
 
Tides and Currents Weather Stations Pressure Air Temp Water Temp Dewpoint Dewpoint Depression Visibility Wind Speed Wind Dir Waves Ship Positions

S 386 Casilo

Last reported at 2014-Dec-22 19:26 UTC. Time now 2014-Dec-22 21:21 UTC.
Position N 57°43' E 010°36'.

Length 24 m.

Type: Fishing. MMSI: 219948000.

Date/timePositionNaut miles runAvg speedWind from/ knotsBaromVisibWave heightAir tempDewpointWater temp
2014-Dec-22 19:26N 57°43' E 010°36'0 0.0
2014-Dec-22 18:32N 57°43' E 010°36'13 1.5
2014-Dec-22 09:29N 57°54' E 010°51'8 8.5
2014-Dec-22 08:33N 58°01' E 010°57'8 7.9
2014-Dec-22 07:33N 58°08' E 011°03'8 7.7
2014-Dec-22 06:33N 58°15' E 011°10'7 6.5
2014-Dec-22 05:33N 58°21' E 011°14'3 2.9
2014-Dec-22 04:33N 58°21' E 011°08'9 8.7
2014-Dec-22 03:33N 58°24' E 010°53'8 8.1
2014-Dec-22 02:33N 58°27' E 010°39'1 1.4
2014-Dec-22 01:33N 58°26' E 010°38'2 2.2
2014-Dec-22 00:33N 58°24' E 010°38'2 2.3
2014-Dec-21 23:33N 58°21' E 010°39'2 2.4
2014-Dec-21 22:31N 58°19' E 010°39'2 2.2
2014-Dec-21 21:33N 58°17' E 010°41'2 2.2
2014-Dec-21 20:33N 58°15' E 010°43'2 2.2
2014-Dec-21 19:33N 58°13' E 010°43'2 2.2
2014-Dec-21 18:33N 58°11' E 010°44'3 2.6
2014-Dec-21 17:34N 58°08' E 010°45'8 7.9
2014-Dec-21 16:33N 58°16' E 010°41'8 8.1
2014-Dec-21 15:33N 58°24' E 010°39'1 0.6
2014-Dec-21 14:31N 58°24' E 010°40'3 2.2
2014-Dec-21 13:19N 58°21' E 010°40'2 2.1
2014-Dec-21 12:31N 58°20' E 010°40'2 2.2
2014-Dec-21 11:31N 58°18' E 010°41'2 2.2
2014-Dec-21 10:31N 58°16' E 010°43'2 2.2
2014-Dec-21 09:31N 58°14' E 010°44'2 2.2
2014-Dec-21 08:31N 58°11' E 010°45'2 2.3
2014-Dec-21 07:25N 58°09' E 010°45'2 2.1
2014-Dec-21 06:31N 58°07' E 010°45'2 2.0
2014-Dec-21 05:30N 58°05' E 010°45'1 1.1
2014-Dec-21 04:33N 58°04' E 010°45'6 5.3
2014-Dec-21 03:28N 58°09' E 010°40'1 1.5
2014-Dec-21 02:31N 58°10' E 010°39'2 1.9
2014-Dec-21 01:34N 58°11' E 010°36'2 1.7
2014-Dec-21 00:33N 58°12' E 010°33'2 1.7
2014-Dec-20 23:28N 58°13' E 010°30'2 2.1
2014-Dec-20 22:31N 58°13' E 010°26'2 2.1
2014-Dec-20 21:31N 58°13' E 010°23'2 2.1
2014-Dec-20 20:34N 58°13' E 010°19'2 2.2
2014-Dec-20 19:29N 58°12' E 010°15'2 2.1
2014-Dec-20 18:29N 58°11' E 010°11'3 2.1
2014-Dec-20 17:17N 58°10' E 010°07'5 2.6
2014-Dec-20 15:26N 58°12' E 010°15'2 1.5
2014-Dec-20 14:19N 58°12' E 010°12'31 1.9
2014-Dec-19 21:32N 57°43' E 010°35'0 0.0
2014-Dec-19 20:29N 57°43' E 010°35'0 0.0
2014-Dec-19 19:29N 57°43' E 010°35'0 0.0
2014-Dec-19 02:26N 57°43' E 010°36'0 0.0
2014-Dec-19 01:32N 57°43' E 010°36'0 0.0
2014-Dec-19 00:32N 57°43' E 010°36'15 1.0
2014-Dec-18 09:28N 57°55' E 010°52'7 8.0
2014-Dec-18 08:33N 58°02' E 010°58'8 8.2
2014-Dec-18 07:33N 58°09' E 011°05'9 8.6
2014-Dec-18 06:34N 58°17' E 011°11'5 4.5
2014-Dec-18 05:32N 58°21' E 011°14'0 0.0
2014-Dec-18 04:32N 58°21' E 011°14'4 3.7
2014-Dec-18 03:33N 58°18' E 011°10'7 6.9
2014-Dec-18 02:33N 58°15' E 010°58'7 6.6
2014-Dec-18 01:33N 58°13' E 010°46'5 5.4
2014-Dec-18 00:32N 58°12' E 010°36'1 1.3
2014-Dec-17 23:32N 58°12' E 010°33'5 1.9
2014-Dec-17 21:08N 58°14' E 010°25'1 2.0
2014-Dec-17 20:32N 58°14' E 010°23'2 2.1
2014-Dec-17 19:32N 58°13' E 010°19'2 2.5
2014-Dec-17 18:32N 58°12' E 010°15'2 1.3
2014-Dec-17 17:22N 58°12' E 010°12'2 2.0
2014-Dec-17 16:28N 58°11' E 010°09'4 1.8
2014-Dec-17 14:04N 58°09' E 010°02'2 1.9
2014-Dec-17 13:04N 58°08' E 009°59'  
2014-Dec-14 15:33N 57°16' E 008°30'  
Track history (hours):
 
Tides and Currents Weather Stations Pressure Air Temp Water Temp Dewpoint Dewpoint Depression Visibility Wind Speed Wind Dir Waves Ship Positions

S 386 Casilo

Last reported at 2014-Dec-22 19:26 UTC. Time now 2014-Dec-22 21:21 UTC.
Position N 57°43' E 010°36'.

Length 24 m.

Type: Fishing. MMSI: 219948000.

Date/timePositionNaut miles runAvg speedWind from/ knotsBaromVisibWave heightAir tempDewpointWater temp
2014-Dec-22 19:26N 57°43' E 010°36'0 0.0
2014-Dec-22 18:32N 57°43' E 010°36'13 1.5
2014-Dec-22 09:29N 57°54' E 010°51'8 8.5
2014-Dec-22 08:33N 58°01' E 010°57'8 7.9
2014-Dec-22 07:33N 58°08' E 011°03'8 7.7
2014-Dec-22 06:33N 58°15' E 011°10'7 6.5
2014-Dec-22 05:33N 58°21' E 011°14'3 2.9
2014-Dec-22 04:33N 58°21' E 011°08'9 8.7
2014-Dec-22 03:33N 58°24' E 010°53'8 8.1
2014-Dec-22 02:33N 58°27' E 010°39'1 1.4
2014-Dec-22 01:33N 58°26' E 010°38'2 2.2
2014-Dec-22 00:33N 58°24' E 010°38'2 2.3
2014-Dec-21 23:33N 58°21' E 010°39'2 2.4
2014-Dec-21 22:31N 58°19' E 010°39'2 2.2
2014-Dec-21 21:33N 58°17' E 010°41'2 2.2
2014-Dec-21 20:33N 58°15' E 010°43'2 2.2
2014-Dec-21 19:33N 58°13' E 010°43'2 2.2
2014-Dec-21 18:33N 58°11' E 010°44'3 2.6
2014-Dec-21 17:34N 58°08' E 010°45'8 7.9
2014-Dec-21 16:33N 58°16' E 010°41'8 8.1
2014-Dec-21 15:33N 58°24' E 010°39'1 0.6
2014-Dec-21 14:31N 58°24' E 010°40'3 2.2
2014-Dec-21 13:19N 58°21' E 010°40'2 2.1
2014-Dec-21 12:31N 58°20' E 010°40'2 2.2
2014-Dec-21 11:31N 58°18' E 010°41'2 2.2
2014-Dec-21 10:31N 58°16' E 010°43'2 2.2
2014-Dec-21 09:31N 58°14' E 010°44'2 2.2
2014-Dec-21 08:31N 58°11' E 010°45'2 2.3
2014-Dec-21 07:25N 58°09' E 010°45'2 2.1
2014-Dec-21 06:31N 58°07' E 010°45'2 2.0
2014-Dec-21 05:30N 58°05' E 010°45'1 1.1
2014-Dec-21 04:33N 58°04' E 010°45'6 5.3
2014-Dec-21 03:28N 58°09' E 010°40'1 1.5
2014-Dec-21 02:31N 58°10' E 010°39'2 1.9
2014-Dec-21 01:34N 58°11' E 010°36'2 1.7
2014-Dec-21 00:33N 58°12' E 010°33'2 1.7
2014-Dec-20 23:28N 58°13' E 010°30'2 2.1
2014-Dec-20 22:31N 58°13' E 010°26'2 2.1
2014-Dec-20 21:31N 58°13' E 010°23'2 2.1
2014-Dec-20 20:34N 58°13' E 010°19'2 2.2
2014-Dec-20 19:29N 58°12' E 010°15'2 2.1
2014-Dec-20 18:29N 58°11' E 010°11'3 2.1
2014-Dec-20 17:17N 58°10' E 010°07'5 2.6
2014-Dec-20 15:26N 58°12' E 010°15'2 1.5
2014-Dec-20 14:19N 58°12' E 010°12'31 1.9
2014-Dec-19 21:32N 57°43' E 010°35'0 0.0
2014-Dec-19 20:29N 57°43' E 010°35'0 0.0
2014-Dec-19 19:29N 57°43' E 010°35'0 0.0
2014-Dec-19 02:26N 57°43' E 010°36'0 0.0
2014-Dec-19 01:32N 57°43' E 010°36'0 0.0
2014-Dec-19 00:32N 57°43' E 010°36'15 1.0
2014-Dec-18 09:28N 57°55' E 010°52'7 8.0
2014-Dec-18 08:33N 58°02' E 010°58'8 8.2
2014-Dec-18 07:33N 58°09' E 011°05'9 8.6
2014-Dec-18 06:34N 58°17' E 011°11'5 4.5
2014-Dec-18 05:32N 58°21' E 011°14'0 0.0
2014-Dec-18 04:32N 58°21' E 011°14'4 3.7
2014-Dec-18 03:33N 58°18' E 011°10'7 6.9
2014-Dec-18 02:33N 58°15' E 010°58'7 6.6
2014-Dec-18 01:33N 58°13' E 010°46'5 5.4
2014-Dec-18 00:32N 58°12' E 010°36'1 1.3
2014-Dec-17 23:32N 58°12' E 010°33'5 1.9
2014-Dec-17 21:08N 58°14' E 010°25'1 2.0
2014-Dec-17 20:32N 58°14' E 010°23'2 2.1
2014-Dec-17 19:32N 58°13' E 010°19'2 2.5
2014-Dec-17 18:32N 58°12' E 010°15'2 1.3
2014-Dec-17 17:22N 58°12' E 010°12'2 2.0
2014-Dec-17 16:28N 58°11' E 010°09'4 1.8
2014-Dec-17 14:04N 58°09' E 010°02'2 1.9
2014-Dec-17 13:04N 58°08' E 009°59'  
2014-Dec-14 15:33N 57°16' E 008°30'  

Dump ship's entire track history